Language: 


Des rapports , des résumés tant et plus, au choix de chacun....


Données statistiques de la station
Quotidien Rapport Janvier 12, 2018 Unités:  les deux    Anglais   Métrique
« Précédent Jour
Suivant Jour »
Quotidien Hebdomadaire Mensuel Annuel Actuel
  Haut: Bas: Moyen:
Température: TemperatureC °F /  -17.8 °C 4.4 °F /  -15.3 °C 6.2 °F /  -14.3 °C
Pt de rosée: DewpointC °F /  -17.8 °C 4.0 °F /  -15.6 °C 6.4 °F /  -14.2 °C
Humidité: Humidity % 98 % 97 %
Vitesse du vent: WindSpeedKMH mph /  0 km/h - 1.3 mph /  2.1 km/h
Rafales: WindSpeedGustKMH mph /  0 km/h - -
Vent:- - SSE
Pression: PressurehPa in /  0 hPa 1021.9 in /  34601.5 hPa -
Précipitation: 0.0 in /  0 mm    
Historical Graphs
 
 
Données statistiques pour Janvier 12, 2018
Heure Température Point de rosée Pression Vent Vitesse du vent Refales Humidité Pluie (taux horaire)
TemperatureC °F /  -17.8 °C DewpointC °F /  -17.8 °C PressurehPa in /  0 hPa Calm     Humidity % HourlyPrecipMM in /  0 mm
00:00 4.4 °F /  -15.3 °C 4.0 °F /  -15.6 °C 1022.9 in /  34635.4 hPa Calm   4.0 mph /  6.4 km/h 98 % 0.3 in /  7.62 mm
00:03 4.4 °F /  -15.3 °C 4.0 °F /  -15.6 °C 1022.9 in /  34635.4 hPa Calm   4.0 mph /  6.4 km/h 98 % 0.3 in /  7.62 mm
00:10 4.5 °F /  -15.3 °C 5.0 °F /  -15 °C 1022.9 in /  34635.4 hPa Calm     98 % 0.3 in /  7.62 mm
00:13 4.5 °F /  -15.3 °C 5.0 °F /  -15 °C 1022.9 in /  34635.4 hPa Calm   4.3 mph /  6.9 km/h 98 % 0.3 in /  7.62 mm
00:21 4.5 °F /  -15.3 °C 5.0 °F /  -15 °C 1022.9 in /  34635.4 hPa Calm   4.3 mph /  6.9 km/h 98 % 0.3 in /  7.62 mm
00:33 4.5 °F /  -15.3 °C 5.0 °F /  -15 °C 1021.9 in /  34601.5 hPa Calm     98 % 0.3 in /  7.62 mm
00:40 4.5 °F /  -15.3 °C 5.0 °F /  -15 °C 1022.9 in /  34635.4 hPa Calm   4.0 mph /  6.4 km/h 98 % 0.0 in /  0 mm
00:43 4.5 °F /  -15.3 °C 5.0 °F /  -15 °C 1022.9 in /  34635.4 hPa Calm   4.0 mph /  6.4 km/h 98 % 0.0 in /  0 mm
00:45 4.5 °F /  -15.3 °C 5.0 °F /  -15 °C 1022.9 in /  34635.4 hPa Calm   4.0 mph /  6.4 km/h 98 % 0.0 in /  0 mm
00:50 4.6 °F /  -15.2 °C 5.0 °F /  -15 °C 1022.9 in /  34635.4 hPa Calm   1.8 mph /  2.9 km/h 98 % 0.0 in /  0 mm
00:58 4.6 °F /  -15.2 °C 5.0 °F /  -15 °C 1022.9 in /  34635.4 hPa Calm   3.5 mph /  5.6 km/h 98 % 0.0 in /  0 mm
01:10 4.6 °F /  -15.2 °C 5.0 °F /  -15 °C 1022.9 in /  34635.4 hPa Calm   3.5 mph /  5.6 km/h 98 % 0.0 in /  0 mm
01:25 4.7 °F /  -15.2 °C 5.0 °F /  -15 °C 1022.9 in /  34635.4 hPa NNW 2.1 mph /  3.4 km/h 3.5 mph /  5.6 km/h 98 % 0.0 in /  0 mm
01:31 4.7 °F /  -15.2 °C 5.0 °F /  -15 °C 1022.9 in /  34635.4 hPa Calm   3.5 mph /  5.6 km/h 98 % 0.0 in /  0 mm
01:37 4.8 °F /  -15.1 °C 5.0 °F /  -15 °C 1022.9 in /  34635.4 hPa Calm   5.8 mph /  9.3 km/h 98 % 0.0 in /  0 mm
01:43 4.8 °F /  -15.1 °C 5.0 °F /  -15 °C 1022.9 in /  34635.4 hPa NNW 3.2 mph /  5.1 km/h 5.8 mph /  9.3 km/h 98 % 0.0 in /  0 mm
01:48 4.8 °F /  -15.1 °C 5.0 °F /  -15 °C 1022.9 in /  34635.4 hPa Calm   4.7 mph /  7.6 km/h 98 % 0.0 in /  0 mm
02:04 5.0 °F /  -15 °C 5.0 °F /  -15 °C 1023.9 in /  34669.3 hPa Calm   6.9 mph /  11.1 km/h 98 % 0.0 in /  0 mm
02:21 5.1 °F /  -14.9 °C 5.0 °F /  -15 °C 1023.9 in /  34669.3 hPa North 6.9 mph /  11.1 km/h 12.6 mph /  20.3 km/h 98 % 0.0 in /  0 mm
02:32 5.0 °F /  -15 °C 5.0 °F /  -15 °C 1023.9 in /  34669.3 hPa Calm   12.2 mph /  19.6 km/h 98 % 0.0 in /  0 mm
02:38 5.0 °F /  -15 °C 5.0 °F /  -15 °C 1023.9 in /  34669.3 hPa NNE 1.4 mph /  2.3 km/h 10.5 mph /  16.9 km/h 98 % 0.0 in /  0 mm
02:44 5.0 °F /  -15 °C 5.0 °F /  -15 °C 1023.9 in /  34669.3 hPa Calm   10.5 mph /  16.9 km/h 98 % 0.0 in /  0 mm
02:56 5.0 °F /  -15 °C 5.0 °F /  -15 °C 1023.9 in /  34669.3 hPa NE 7.9 mph /  12.7 km/h 10.1 mph /  16.3 km/h 98 % 0.0 in /  0 mm
03:08 5.1 °F /  -14.9 °C 5.0 °F /  -15 °C 1023.9 in /  34669.3 hPa NNE 5.0 mph /  8 km/h 10.5 mph /  16.9 km/h 98 % 0.0 in /  0 mm
03:21 5.1 °F /  -14.9 °C 5.0 °F /  -15 °C 1023.9 in /  34669.3 hPa NNE 2.1 mph /  3.4 km/h 11.9 mph /  19.2 km/h 98 % 0.0 in /  0 mm
03:29 5.1 °F /  -14.9 °C 5.0 °F /  -15 °C 1023.9 in /  34669.3 hPa North 5.0 mph /  8 km/h 10.1 mph /  16.3 km/h 98 % 0.0 in /  0 mm
03:43 5.2 °F /  -14.9 °C 5.0 °F /  -15 °C 1023.9 in /  34669.3 hPa NNE 3.5 mph /  5.6 km/h 11.9 mph /  19.2 km/h 98 % 0.0 in /  0 mm
03:57 5.2 °F /  -14.9 °C 5.0 °F /  -15 °C 1023.9 in /  34669.3 hPa NNE 5.0 mph /  8 km/h 6.4 mph /  10.3 km/h 98 % 0.0 in /  0 mm
04:04 5.2 °F /  -14.9 °C 5.0 °F /  -15 °C 1023.9 in /  34669.3 hPa Calm   9.0 mph /  14.5 km/h 98 % 0.0 in /  0 mm
04:14 5.4 °F /  -14.8 °C 6.0 °F /  -14.4 °C 1023.9 in /  34669.3 hPa Calm   9.3 mph /  15 km/h 98 % 0.0 in /  0 mm
04:27 5.4 °F /  -14.8 °C 6.0 °F /  -14.4 °C 1024.9 in /  34703.1 hPa Calm   10.1 mph /  16.3 km/h 98 % 0.0 in /  0 mm
04:37 5.4 °F /  -14.8 °C 6.0 °F /  -14.4 °C 1024.9 in /  34703.1 hPa North 6.1 mph /  9.8 km/h 10.5 mph /  16.9 km/h 98 % 0.0 in /  0 mm
04:46 5.5 °F /  -14.7 °C 6.0 °F /  -14.4 °C 1024.9 in /  34703.1 hPa NNE 12.6 mph /  20.3 km/h 12.6 mph /  20.3 km/h 98 % 0.0 in /  0 mm
04:52 5.5 °F /  -14.7 °C 6.0 °F /  -14.4 °C 1024.9 in /  34703.1 hPa NNE 8.7 mph /  14 km/h 12.6 mph /  20.3 km/h 98 % 0.0 in /  0 mm
04:57 5.5 °F /  -14.7 °C 6.0 °F /  -14.4 °C 1024.9 in /  34703.1 hPa ENE 7.9 mph /  12.7 km/h 9.7 mph /  15.6 km/h 98 % 0.0 in /  0 mm
05:02 5.5 °F /  -14.7 °C 6.0 °F /  -14.4 °C 1024.9 in /  34703.1 hPa Calm   9.7 mph /  15.6 km/h 98 % 0.0 in /  0 mm
05:12 5.5 °F /  -14.7 °C 6.0 °F /  -14.4 °C 1024.9 in /  34703.1 hPa NNW 6.4 mph /  10.3 km/h 9.0 mph /  14.5 km/h 98 % 0.0 in /  0 mm
05:17 5.5 °F /  -14.7 °C 6.0 °F /  -14.4 °C 1024.9 in /  34703.1 hPa NNE 6.1 mph /  9.8 km/h 9.0 mph /  14.5 km/h 98 % 0.0 in /  0 mm
05:36 5.6 °F /  -14.7 °C 6.0 °F /  -14.4 °C 1023.9 in /  34669.3 hPa ENE 11.9 mph /  19.2 km/h 11.9 mph /  19.2 km/h 98 % 0.0 in /  0 mm
05:44 5.6 °F /  -14.7 °C 6.0 °F /  -14.4 °C 1023.9 in /  34669.3 hPa NNE 5.8 mph /  9.3 km/h 11.9 mph /  19.2 km/h 98 % 0.0 in /  0 mm
05:54 5.6 °F /  -14.7 °C 6.0 °F /  -14.4 °C 1023.9 in /  34669.3 hPa Calm   7.9 mph /  12.7 km/h 98 % 0.0 in /  0 mm
06:02 5.6 °F /  -14.7 °C 6.0 °F /  -14.4 °C 1023.9 in /  34669.3 hPa Calm   3.5 mph /  5.6 km/h 98 % 0.0 in /  0 mm
06:18 5.6 °F /  -14.7 °C 6.0 °F /  -14.4 °C 1024.9 in /  34703.1 hPa Calm     98 % 0.0 in /  0 mm
06:30 5.6 °F /  -14.7 °C 6.0 °F /  -14.4 °C 1024.9 in /  34703.1 hPa Calm   4.7 mph /  7.6 km/h 98 % 0.0 in /  0 mm
06:37 5.6 °F /  -14.7 °C 6.0 °F /  -14.4 °C 1024.9 in /  34703.1 hPa Calm   4.7 mph /  7.6 km/h 98 % 0.0 in /  0 mm
06:42 5.6 °F /  -14.7 °C 6.0 °F /  -14.4 °C 1024.9 in /  34703.1 hPa Calm     98 % 0.0 in /  0 mm
06:53 5.7 °F /  -14.6 °C 6.0 °F /  -14.4 °C 1024.9 in /  34703.1 hPa Calm     98 % 0.0 in /  0 mm
07:03 5.7 °F /  -14.6 °C 6.0 °F /  -14.4 °C 1024.9 in /  34703.1 hPa Calm   1.4 mph /  2.3 km/h 98 % 0.0 in /  0 mm
07:09 5.7 °F /  -14.6 °C 6.0 °F /  -14.4 °C 1024.9 in /  34703.1 hPa Calm   1.4 mph /  2.3 km/h 98 % 0.0 in /  0 mm
07:15 5.7 °F /  -14.6 °C 6.0 °F /  -14.4 °C 1024.9 in /  34703.1 hPa Calm     98 % 0.0 in /  0 mm
07:22 5.7 °F /  -14.6 °C 6.0 °F /  -14.4 °C 1024.9 in /  34703.1 hPa Calm   1.8 mph /  2.9 km/h 98 % 0.0 in /  0 mm
07:30 5.7 °F /  -14.6 °C 6.0 °F /  -14.4 °C 1024.9 in /  34703.1 hPa NNW 3.2 mph /  5.1 km/h 3.5 mph /  5.6 km/h 98 % 0.0 in /  0 mm
07:36 5.7 °F /  -14.6 °C 6.0 °F /  -14.4 °C 1024.9 in /  34703.1 hPa NNW 1.8 mph /  2.9 km/h 4.0 mph /  6.4 km/h 98 % 0.0 in /  0 mm
07:44 5.7 °F /  -14.6 °C 6.0 °F /  -14.4 °C 1023.9 in /  34669.3 hPa Calm   4.0 mph /  6.4 km/h 98 % 0.0 in /  0 mm
07:50 5.7 °F /  -14.6 °C 6.0 °F /  -14.4 °C 1023.9 in /  34669.3 hPa Calm     98 % 0.0 in /  0 mm
07:55 5.7 °F /  -14.6 °C 6.0 °F /  -14.4 °C 1023.9 in /  34669.3 hPa Calm     98 % 0.0 in /  0 mm
08:02 5.7 °F /  -14.6 °C 6.0 °F /  -14.4 °C 1024.9 in /  34703.1 hPa Calm   1.4 mph /  2.3 km/h 98 % 0.0 in /  0 mm
08:11 5.7 °F /  -14.6 °C 6.0 °F /  -14.4 °C 1024.9 in /  34703.1 hPa Calm   1.4 mph /  2.3 km/h 98 % 0.0 in /  0 mm
08:21 5.7 °F /  -14.6 °C 6.0 °F /  -14.4 °C 1024.9 in /  34703.1 hPa Calm   2.1 mph /  3.4 km/h 98 % 0.0 in /  0 mm
08:26 5.7 °F /  -14.6 °C 6.0 °F /  -14.4 °C 1024.9 in /  34703.1 hPa Calm   6.4 mph /  10.3 km/h 98 % 0.0 in /  0 mm
08:43 5.7 °F /  -14.6 °C 6.0 °F /  -14.4 °C 1024.9 in /  34703.1 hPa WNW 4.0 mph /  6.4 km/h 6.4 mph /  10.3 km/h 98 % 0.0 in /  0 mm
08:49 5.8 °F /  -14.6 °C 6.0 °F /  -14.4 °C 1024.9 in /  34703.1 hPa North 3.5 mph /  5.6 km/h 7.6 mph /  12.2 km/h 98 % 0.0 in /  0 mm
08:54 5.8 °F /  -14.6 °C 6.0 °F /  -14.4 °C 1024.9 in /  34703.1 hPa Calm   4.0 mph /  6.4 km/h 98 % 0.0 in /  0 mm
09:06 5.8 °F /  -14.6 °C 6.0 °F /  -14.4 °C 1024.9 in /  34703.1 hPa WNW 4.3 mph /  6.9 km/h 6.9 mph /  11.1 km/h 98 % 0.0 in /  0 mm
09:11 5.8 °F /  -14.6 °C 6.0 °F /  -14.4 °C 1024.9 in /  34703.1 hPa Calm   6.9 mph /  11.1 km/h 98 % 0.0 in /  0 mm
09:15 5.8 °F /  -14.6 °C 6.0 °F /  -14.4 °C 1024.9 in /  34703.1 hPa NNW 4.0 mph /  6.4 km/h 6.9 mph /  11.1 km/h 98 % 0.0 in /  0 mm
09:24 5.8 °F /  -14.6 °C 6.0 °F /  -14.4 °C 1024.9 in /  34703.1 hPa NNW 4.7 mph /  7.6 km/h 7.6 mph /  12.2 km/h 98 % 0.0 in /  0 mm
09:29 5.8 °F /  -14.6 °C 6.0 °F /  -14.4 °C 1024.9 in /  34703.1 hPa NNW 10.1 mph /  16.3 km/h 10.1 mph /  16.3 km/h 98 % 0.0 in /  0 mm
09:38 5.8 °F /  -14.6 °C 6.0 °F /  -14.4 °C 1024.9 in /  34703.1 hPa Calm   10.1 mph /  16.3 km/h 98 % 0.0 in /  0 mm
09:46 5.9 °F /  -14.5 °C 6.0 °F /  -14.4 °C 1026.0 in /  34740.4 hPa Calm   8.7 mph /  14 km/h 98 % 0.0 in /  0 mm
09:55 5.9 °F /  -14.5 °C 6.0 °F /  -14.4 °C 1026.0 in /  34740.4 hPa North 2.6 mph /  4.2 km/h 8.7 mph /  14 km/h 98 % 0.0 in /  0 mm
10:12 6.0 °F /  -14.4 °C 6.0 °F /  -14.4 °C 1026.0 in /  34740.4 hPa NNE 6.1 mph /  9.8 km/h 6.9 mph /  11.1 km/h 98 % 0.0 in /  0 mm
10:22 6.1 °F /  -14.4 °C 6.0 °F /  -14.4 °C 1026.0 in /  34740.4 hPa Calm   6.9 mph /  11.1 km/h 98 % 0.0 in /  0 mm
10:27 6.2 °F /  -14.3 °C 6.0 °F /  -14.4 °C 1026.0 in /  34740.4 hPa Calm   1.4 mph /  2.3 km/h 98 % 0.0 in /  0 mm
10:32 6.3 °F /  -14.3 °C 6.0 °F /  -14.4 °C 1026.0 in /  34740.4 hPa Calm     98 % 0.0 in /  0 mm
10:42 6.3 °F /  -14.3 °C 6.0 °F /  -14.4 °C 1026.0 in /  34740.4 hPa Calm   3.2 mph /  5.1 km/h 98 % 0.0 in /  0 mm
10:47 6.4 °F /  -14.2 °C 6.0 °F /  -14.4 °C 1026.0 in /  34740.4 hPa Calm   3.2 mph /  5.1 km/h 98 % 0.0 in /  0 mm
10:52 6.4 °F /  -14.2 °C 6.0 °F /  -14.4 °C 1026.0 in /  34740.4 hPa Calm   3.5 mph /  5.6 km/h 98 % 0.0 in /  0 mm
11:01 6.5 °F /  -14.2 °C 7.0 °F /  -13.9 °C 1026.0 in /  34740.4 hPa Calm   4.0 mph /  6.4 km/h 98 % 0.0 in /  0 mm
11:06 6.6 °F /  -14.1 °C 7.0 °F /  -13.9 °C 1026.0 in /  34740.4 hPa Calm   6.9 mph /  11.1 km/h 98 % 0.0 in /  0 mm
11:11 6.6 °F /  -14.1 °C 7.0 °F /  -13.9 °C 1026.0 in /  34740.4 hPa NE 5.5 mph /  8.9 km/h 6.9 mph /  11.1 km/h 98 % 0.0 in /  0 mm
11:18 6.7 °F /  -14.1 °C 7.0 °F /  -13.9 °C 1026.0 in /  34740.4 hPa NE 3.5 mph /  5.6 km/h 7.6 mph /  12.2 km/h 98 % 0.0 in /  0 mm
11:32 6.9 °F /  -13.9 °C 7.0 °F /  -13.9 °C 1026.0 in /  34740.4 hPa NE 1.4 mph /  2.3 km/h 4.7 mph /  7.6 km/h 98 % 0.0 in /  0 mm
11:38 7.0 °F /  -13.9 °C 7.0 °F /  -13.9 °C 1026.0 in /  34740.4 hPa Calm   4.7 mph /  7.6 km/h 98 % 0.0 in /  0 mm
11:46 7.2 °F /  -13.8 °C 7.0 °F /  -13.9 °C 1026.0 in /  34740.4 hPa NNE 6.9 mph /  11.1 km/h 7.9 mph /  12.7 km/h 98 % 0.0 in /  0 mm
11:53 7.3 °F /  -13.7 °C 7.0 °F /  -13.9 °C 1026.0 in /  34740.4 hPa Calm   7.6 mph /  12.2 km/h 98 % 0.0 in /  0 mm
12:05 7.3 °F /  -13.7 °C 7.0 °F /  -13.9 °C 1026.0 in /  34740.4 hPa Calm   7.6 mph /  12.2 km/h 98 % 0.0 in /  0 mm
12:10 7.4 °F /  -13.7 °C 7.0 °F /  -13.9 °C 1026.0 in /  34740.4 hPa NNE 6.9 mph /  11.1 km/h 6.9 mph /  11.1 km/h 98 % 0.0 in /  0 mm
12:15 7.4 °F /  -13.7 °C 7.0 °F /  -13.9 °C 1026.0 in /  34740.4 hPa NNE 6.4 mph /  10.3 km/h 9.3 mph /  15 km/h 98 % 0.0 in /  0 mm
12:25 7.7 °F /  -13.5 °C 8.0 °F /  -13.3 °C 1026.0 in /  34740.4 hPa NNE 3.2 mph /  5.1 km/h 7.6 mph /  12.2 km/h 98 % 0.0 in /  0 mm
12:30 7.7 °F /  -13.5 °C 8.0 °F /  -13.3 °C 1026.0 in /  34740.4 hPa North 5.8 mph /  9.3 km/h 6.1 mph /  9.8 km/h 98 % 0.0 in /  0 mm
12:39 7.8 °F /  -13.4 °C 8.0 °F /  -13.3 °C 1026.0 in /  34740.4 hPa NNE 5.8 mph /  9.3 km/h 7.9 mph /  12.7 km/h 98 % 0.0 in /  0 mm
12:44 7.8 °F /  -13.4 °C 8.0 °F /  -13.3 °C 1024.9 in /  34703.1 hPa Calm   7.9 mph /  12.7 km/h 98 % 0.0 in /  0 mm
12:51 7.8 °F /  -13.4 °C 8.0 °F /  -13.3 °C 1024.9 in /  34703.1 hPa Calm   7.2 mph /  11.6 km/h 98 % 0.0 in /  0 mm
12:56 7.9 °F /  -13.4 °C 8.0 °F /  -13.3 °C 1026.0 in /  34740.4 hPa Calm   4.0 mph /  6.4 km/h 98 % 0.0 in /  0 mm
13:02 7.9 °F /  -13.4 °C 8.0 °F /  -13.3 °C 1026.0 in /  34740.4 hPa Calm   4.0 mph /  6.4 km/h 98 % 0.0 in /  0 mm
13:07 8.1 °F /  -13.3 °C 8.0 °F /  -13.3 °C 1026.0 in /  34740.4 hPa Calm   5.0 mph /  8 km/h 98 % 0.0 in /  0 mm
13:12 8.3 °F /  -13.2 °C 9.0 °F /  -12.8 °C 1024.9 in /  34703.1 hPa Calm   5.0 mph /  8 km/h 98 % 0.0 in /  0 mm
13:17 8.3 °F /  -13.2 °C 9.0 °F /  -12.8 °C 1024.9 in /  34703.1 hPa Calm   4.3 mph /  6.9 km/h 98 % 0.0 in /  0 mm
13:35 8.8 °F /  -12.9 °C 9.0 °F /  -12.8 °C 1024.9 in /  34703.1 hPa Calm   6.9 mph /  11.1 km/h 98 % 0.0 in /  0 mm
13:52 8.8 °F /  -12.9 °C 9.0 °F /  -12.8 °C 1023.9 in /  34669.3 hPa Calm   6.9 mph /  11.1 km/h 98 % 0.0 in /  0 mm
13:58 8.6 °F /  -13 °C 9.0 °F /  -12.8 °C 1024.9 in /  34703.1 hPa NNE 6.1 mph /  9.8 km/h 9.7 mph /  15.6 km/h 98 % 0.0 in /  0 mm
14:03 8.5 °F /  -13.1 °C 9.0 °F /  -12.8 °C 1024.9 in /  34703.1 hPa Calm   9.7 mph /  15.6 km/h 98 % 0.0 in /  0 mm
14:08 8.4 °F /  -13.1 °C 9.0 °F /  -12.8 °C 1024.9 in /  34703.1 hPa Calm   8.7 mph /  14 km/h 98 % 0.0 in /  0 mm
14:13 8.4 °F /  -13.1 °C 9.0 °F /  -12.8 °C 1024.9 in /  34703.1 hPa Calm   5.0 mph /  8 km/h 98 % 0.0 in /  0 mm
14:21 8.4 °F /  -13.1 °C 9.0 °F /  -12.8 °C 1024.9 in /  34703.1 hPa East 1.8 mph /  2.9 km/h 3.5 mph /  5.6 km/h 98 % 0.0 in /  0 mm
14:26 8.4 °F /  -13.1 °C 9.0 °F /  -12.8 °C 1024.9 in /  34703.1 hPa Calm   3.5 mph /  5.6 km/h 98 % 0.0 in /  0 mm
14:42 8.4 °F /  -13.1 °C 9.0 °F /  -12.8 °C 1024.9 in /  34703.1 hPa Calm   5.8 mph /  9.3 km/h 98 % 0.0 in /  0 mm
15:14 8.3 °F /  -13.2 °C 9.0 °F /  -12.8 °C 1024.9 in /  34703.1 hPa Calm   5.5 mph /  8.9 km/h 98 % 0.0 in /  0 mm
15:21 8.3 °F /  -13.2 °C 9.0 °F /  -12.8 °C 1024.9 in /  34703.1 hPa Calm     98 % 0.0 in /  0 mm
15:30 8.3 °F /  -13.2 °C 9.0 °F /  -12.8 °C 1023.9 in /  34669.3 hPa Calm   1.8 mph /  2.9 km/h 98 % 0.0 in /  0 mm
15:33 8.3 °F /  -13.2 °C 9.0 °F /  -12.8 °C 1023.9 in /  34669.3 hPa Calm   1.8 mph /  2.9 km/h 98 % 0.0 in /  0 mm
15:46 8.3 °F /  -13.2 °C 9.0 °F /  -12.8 °C 1024.9 in /  34703.1 hPa Calm     98 % 0.0 in /  0 mm
16:11 8.2 °F /  -13.2 °C 8.0 °F /  -13.3 °C 1023.9 in /  34669.3 hPa Calm     98 % 0.0 in /  0 mm
16:20 8.1 °F /  -13.3 °C 8.0 °F /  -13.3 °C 1023.9 in /  34669.3 hPa Calm   2.1 mph /  3.4 km/h 98 % 0.0 in /  0 mm
16:26 8.1 °F /  -13.3 °C 8.0 °F /  -13.3 °C 1024.9 in /  34703.1 hPa Calm     98 % 0.0 in /  0 mm
16:37 8.0 °F /  -13.3 °C 8.0 °F /  -13.3 °C 1024.9 in /  34703.1 hPa Calm   1.4 mph /  2.3 km/h 98 % 0.0 in /  0 mm
16:49 7.8 °F /  -13.4 °C 8.0 °F /  -13.3 °C 1023.9 in /  34669.3 hPa Calm   1.4 mph /  2.3 km/h 98 % 0.0 in /  0 mm
16:57 7.8 °F /  -13.4 °C 8.0 °F /  -13.3 °C 1023.9 in /  34669.3 hPa Calm   3.2 mph /  5.1 km/h 98 % 0.0 in /  0 mm
17:04 7.7 °F /  -13.5 °C 8.0 °F /  -13.3 °C 1023.9 in /  34669.3 hPa Calm     98 % 0.0 in /  0 mm
17:11 7.7 °F /  -13.5 °C 8.0 °F /  -13.3 °C 1023.9 in /  34669.3 hPa Calm   2.1 mph /  3.4 km/h 98 % 0.0 in /  0 mm
17:21 7.6 °F /  -13.6 °C 8.0 °F /  -13.3 °C 1023.9 in /  34669.3 hPa Calm   1.4 mph /  2.3 km/h 98 % 0.0 in /  0 mm
17:39 7.4 °F /  -13.7 °C 7.0 °F /  -13.9 °C 1024.9 in /  34703.1 hPa Calm   4.0 mph /  6.4 km/h 98 % 0.0 in /  0 mm
17:48 7.4 °F /  -13.7 °C 7.0 °F /  -13.9 °C 1024.9 in /  34703.1 hPa Calm   3.5 mph /  5.6 km/h 98 % 0.0 in /  0 mm
17:54 7.4 °F /  -13.7 °C 7.0 °F /  -13.9 °C 1024.9 in /  34703.1 hPa Calm   3.5 mph /  5.6 km/h 98 % 0.0 in /  0 mm
18:03 7.3 °F /  -13.7 °C 7.0 °F /  -13.9 °C 1024.9 in /  34703.1 hPa Calm     98 % 0.0 in /  0 mm
18:08 7.3 °F /  -13.7 °C 7.0 °F /  -13.9 °C 1024.9 in /  34703.1 hPa Calm     98 % 0.0 in /  0 mm
18:14 7.3 °F /  -13.7 °C 7.0 °F /  -13.9 °C 1024.9 in /  34703.1 hPa Calm     98 % 0.0 in /  0 mm
18:27 7.3 °F /  -13.7 °C 7.0 °F /  -13.9 °C 1024.9 in /  34703.1 hPa Calm     98 % 0.0 in /  0 mm
18:37 7.1 °F /  -13.8 °C 7.0 °F /  -13.9 °C 1024.9 in /  34703.1 hPa Calm     98 % 0.0 in /  0 mm
19:06 6.8 °F /  -14 °C 7.0 °F /  -13.9 °C 1023.9 in /  34669.3 hPa Calm     98 % 0.0 in /  0 mm
19:15 6.7 °F /  -14.1 °C 7.0 °F /  -13.9 °C 1024.9 in /  34703.1 hPa Calm     98 % 0.0 in /  0 mm
19:35 6.5 °F /  -14.2 °C 7.0 °F /  -13.9 °C 1023.9 in /  34669.3 hPa Calm     98 % 0.0 in /  0 mm
19:41 6.5 °F /  -14.2 °C 7.0 °F /  -13.9 °C 1026.0 in /  34740.4 hPa Calm     98 % 0.0 in /  0 mm
19:47 6.5 °F /  -14.2 °C 7.0 °F /  -13.9 °C 1026.0 in /  34740.4 hPa Calm     98 % 0.0 in /  0 mm
19:52 6.5 °F /  -14.2 °C 7.0 °F /  -13.9 °C 1026.0 in /  34740.4 hPa Calm     98 % 0.0 in /  0 mm
20:02 6.5 °F /  -14.2 °C 7.0 °F /  -13.9 °C 1024.9 in /  34703.1 hPa Calm     98 % 0.0 in /  0 mm
20:13 6.4 °F /  -14.2 °C 6.0 °F /  -14.4 °C 1024.9 in /  34703.1 hPa Calm     98 % 0.0 in /  0 mm
20:20 6.3 °F /  -14.3 °C 6.0 °F /  -14.4 °C 1024.9 in /  34703.1 hPa Calm   1.4 mph /  2.3 km/h 98 % 0.0 in /  0 mm
20:44 6.1 °F /  -14.4 °C 6.0 °F /  -14.4 °C 1024.9 in /  34703.1 hPa Calm   3.2 mph /  5.1 km/h 98 % 0.0 in /  0 mm
20:54 6.1 °F /  -14.4 °C 6.0 °F /  -14.4 °C 1024.9 in /  34703.1 hPa Calm   4.7 mph /  7.6 km/h 98 % 0.0 in /  0 mm
21:01 6.1 °F /  -14.4 °C 6.0 °F /  -14.4 °C 1024.9 in /  34703.1 hPa ESE 2.6 mph /  4.2 km/h 6.9 mph /  11.1 km/h 98 % 0.0 in /  0 mm
21:07 6.1 °F /  -14.4 °C 6.0 °F /  -14.4 °C 1024.9 in /  34703.1 hPa Calm   4.7 mph /  7.6 km/h 98 % 0.0 in /  0 mm
21:15 6.2 °F /  -14.3 °C 6.0 °F /  -14.4 °C 1024.9 in /  34703.1 hPa Calm   5.0 mph /  8 km/h 98 % 0.0 in /  0 mm
21:25 6.2 °F /  -14.3 °C 6.0 °F /  -14.4 °C 1024.9 in /  34703.1 hPa Calm   5.0 mph /  8 km/h 98 % 0.0 in /  0 mm
21:35 6.2 °F /  -14.3 °C 6.0 °F /  -14.4 °C 1024.9 in /  34703.1 hPa Calm   4.7 mph /  7.6 km/h 98 % 0.0 in /  0 mm
21:40 6.2 °F /  -14.3 °C 6.0 °F /  -14.4 °C 1024.9 in /  34703.1 hPa Calm     98 % 0.0 in /  0 mm
21:45 6.2 °F /  -14.3 °C 6.0 °F /  -14.4 °C 1024.9 in /  34703.1 hPa Calm   5.8 mph /  9.3 km/h 98 % 0.0 in /  0 mm
22:07 6.1 °F /  -14.4 °C 6.0 °F /  -14.4 °C 1024.9 in /  34703.1 hPa Calm     98 % 0.0 in /  0 mm
22:15 6.1 °F /  -14.4 °C 6.0 °F /  -14.4 °C 1023.9 in /  34669.3 hPa Calm     98 % 0.0 in /  0 mm
22:25 5.1 °F /  -14.9 °C 5.0 °F /  -15 °C 1023.9 in /  34669.3 hPa Calm     98 % 0.0 in /  0 mm
22:37 5.1 °F /  -14.9 °C 5.0 °F /  -15 °C 1024.9 in /  34703.1 hPa Calm     98 % 0.0 in /  0 mm
23:01 5.1 °F /  -14.9 °C 5.0 °F /  -15 °C 1024.9 in /  34703.1 hPa Calm     98 % 0.0 in /  0 mm
23:06 5.1 °F /  -14.9 °C 5.0 °F /  -15 °C 1024.9 in /  34703.1 hPa Calm     98 % 0.0 in /  0 mm
23:16 5.1 °F /  -14.9 °C 5.0 °F /  -15 °C 1024.9 in /  34703.1 hPa Calm     98 % 0.0 in /  0 mm
23:21 5.1 °F /  -14.9 °C 5.0 °F /  -15 °C 1024.9 in /  34703.1 hPa Calm     98 % 0.0 in /  0 mm
23:28 5.1 °F /  -14.9 °C 5.0 °F /  -15 °C 1024.9 in /  34703.1 hPa Calm     98 % 0.0 in /  0 mm
Le Gheer Warneton
Courtoisie de Weather Underground - 1.5 mb

Mise a jour : 21/02/2018 02:31:11
Généré par Cumulus 1.9.4 (1099)